»·PEaware :: N90559 KBFL-KPRB

N90559 :: KBFL-KPRB

FLIGHT INFORMATION

Flight Status: Arrived
Operator: Privately registered:
United States
More flights under this callsign
Pilot: Aero Safety Training (369)
Aircraft: CESSNA 172 SKYHAWK
(C172)
More flights by this aircraft type
Origin: KBFL Meadows
United States
Destination: KPRB Paso Robles Mun
United States
More flights between these airports :: More routes between these airports
Route: +EHF V248 PRB
File this flight plan on PilotEdge
Remarks: GPS 19 APPROACH / V /
Altitude:
(Current/Filed)
5,000ft
Speed:
(Current/Filed)
110kts
Departed: 31-May-14 08:58 AM
Arrived: 31-May-14 09:44 AM
Distance/Time
Traveled:
78nm/0:45
Distance/Time
To Go:
Arrived

Flight Plot

Page will automatically refresh every two minutes.

Flight plan parsing failed; only flown route is shown


Map Options




Map Legend


Flown Route
Filed Route
Departure Airport
Arrival Airport
Navaid (VOR, NDB)
Fix

Horizontal Profiles

Position Reports

Time Latitude Longitude Heading Altitude Ground
Speed
31-May-14 08:38 35.435472 -119.053880 179 510ft 0kts
31-May-14 08:39 35.435470 -119.053880 179 510ft 0kts
31-May-14 08:40 35.435468 -119.053880 179 510ft 0kts
31-May-14 08:41 35.435467 -119.053880 179 510ft 0kts
31-May-14 08:42 35.435466 -119.053880 179 510ft 0kts
31-May-14 08:43 35.435465 -119.053880 180 510ft 0kts
31-May-14 08:44 35.435464 -119.053880 180 510ft 0kts
31-May-14 08:45 35.435463 -119.053880 180 510ft 0kts
31-May-14 08:46 35.435462 -119.053880 180 510ft 0kts
31-May-14 08:47 35.435461 -119.053880 180 510ft 0kts
31-May-14 08:48 35.435460 -119.053880 180 510ft 0kts
31-May-14 08:49 35.435459 -119.053880 180 510ft 0kts
31-May-14 08:50 35.435440 -119.053881 180 510ft 2kts
31-May-14 08:51 35.433576 -119.053598 139 510ft 8kts
31-May-14 08:52 35.429772 -119.048880 135 510ft 25kts
31-May-14 08:53 35.427046 -119.045601 136 510ft 15kts
31-May-14 08:54 35.426045 -119.045622 230 510ft 0kts
31-May-14 08:55 35.426044 -119.045625 230 510ft 0kts
31-May-14 08:56 35.425983 -119.045712 229 510ft 5kts
31-May-14 08:57 35.433683 -119.055889 312 745ft 80kts
31-May-14 08:58 35.449759 -119.076831 312 1776ft 88kts
31-May-14 08:59 35.463768 -119.095061 313 2687ft 89kts
31-May-14 09:00 35.481502 -119.123808 285 3766ft 96kts
31-May-14 09:01 35.488702 -119.153517 287 4671ft 89kts
31-May-14 09:02 35.496863 -119.182774 288 5450ft 89kts
31-May-14 09:03 35.503009 -119.207069 284 5979ft 93kts
31-May-14 09:04 35.510214 -119.240611 281 6107ft 103kts
31-May-14 09:05 35.518859 -119.284500 286 6143ft 115kts
31-May-14 09:06 35.525997 -119.317816 283 6011ft 125kts
31-May-14 09:07 35.533798 -119.359039 283 6000ft 121kts
31-May-14 09:08 35.541294 -119.399294 282 6001ft 120kts
31-May-14 09:09 35.548789 -119.439545 282 6001ft 120kts
31-May-14 09:10 35.556250 -119.479741 283 6001ft 120kts
31-May-14 09:11 35.563716 -119.520024 282 5999ft 121kts
31-May-14 09:12 35.571184 -119.560398 282 5999ft 120kts
31-May-14 09:13 35.578586 -119.600481 282 6012ft 119kts
31-May-14 09:14 35.585979 -119.640628 282 6000ft 121kts
31-May-14 09:15 35.593380 -119.680890 282 5998ft 120kts
31-May-14 09:16 35.600771 -119.721127 282 5999ft 120kts
31-May-14 09:17 35.608115 -119.761232 282 6002ft 120kts
31-May-14 09:18 35.615895 -119.801066 284 6004ft 121kts
31-May-14 09:19 35.623496 -119.841022 282 6017ft 120kts
31-May-14 09:20 35.630755 -119.881228 281 6042ft 119kts
31-May-14 09:21 35.637565 -119.921137 282 6020ft 122kts
31-May-14 09:22 35.645263 -119.961300 281 6082ft 117kts
31-May-14 09:23 35.647965 -120.002732 272 5985ft 124kts
31-May-14 09:24 35.649971 -120.045227 272 6053ft 130kts
31-May-14 09:25 35.652574 -120.090871 278 6077ft 134kts
31-May-14 09:26 35.652962 -120.137578 265 6082ft 135kts
31-May-14 09:27 35.654248 -120.184548 281 6046ft 139kts
31-May-14 09:28 35.657190 -120.230060 267 6077ft 140kts
31-May-14 09:29 35.659045 -120.278698 270 6010ft 139kts
31-May-14 09:30 35.660912 -120.326279 272 6017ft 138kts
31-May-14 09:31 35.663267 -120.373674 279 5976ft 140kts
31-May-14 09:32 35.665653 -120.419893 269 5745ft 126kts
31-May-14 09:33 35.683076 -120.450776 342 5061ft 107kts
31-May-14 09:34 35.711104 -120.466896 344 4902ft 111kts
31-May-14 09:35 35.733865 -120.494453 334 4222ft 109kts
31-May-14 09:36 35.759162 -120.516063 332 3489ft 112kts
31-May-14 09:37 35.784255 -120.537029 330 3038ft 106kts
31-May-14 09:38 35.782339 -120.567120 188 2685ft 107kts
31-May-14 09:39 35.755507 -120.578035 200 2481ft 95kts
31-May-14 09:40 35.734354 -120.593186 201 1790ft 79kts
31-May-14 09:41 35.712971 -120.605015 208 1395ft 86kts
31-May-14 09:42 35.693019 -120.617823 200 1189ft 76kts
31-May-14 09:43 35.678030 -120.627592 206 839ft 14kts
31-May-14 09:44 35.677456 -120.630236 247 839ft 5kts

Navigation Log

Ident Type
Flight plan parsing failed, navigation log unavailable